Aviation Digital Data Service (ADDS)

Output produced by METARs form (1158 UTC 26 March 2019)
found at http://www.aviationweather.gov/metar/data/
 
DIBK 261100Z 22004KT 9999 FEW013 30/21 Q1014 NOSIG
TAF DIBK 260533Z 2606/2706 22008KT 9999 FEW010 
     PROB40 2606/2609 4000 BR BKN010 
     BECMG 2608/2609 BKN010 
     BECMG 2614/2615 SCT013 
     PROB30 
     TEMPO 2617/2623 TS BKN012 FEW023CB
       
DIAP 261130Z 23009KT 9999 FEW013 31/24 Q1011 NOSIG
TAF DIAP 260531Z 2606/2712 28006KT 8000 SCT012 
     PROB40 2606/2609 4000 BR BKN010 
     BECMG 2609/2610 22010KT 
     PROB30 
     TEMPO 2617/2622 TS BKN012 FEW020CB
       
DIYO 261100Z 24006KT 9999 FEW015 31/21 Q1013 NOSIG
TAF DIYO 260533Z 2606/2706 25007KT 9999 SCT011 
     PROB40 2606/2609 4000 BR BKN010 
     BECMG 2608/2609 BKN010 
     BECMG 2614/2615 SCT012 
     PROB30 
     TEMPO 2617/2623 TS BKN012 FEW020CB